Time;durP1;ratioP1;P1;durP2;ratioP2;P2;SDS_P1;SDS_P2;PMS_P1;PMS_P2;Temp;Humidity;BMP_temperature;BMP_pressure;BME280_temperature;BME280_humidity;BME280_pressure;Samples;Min_cycle;Max_cycle;Signal;HPM_P1;HPM_P2
2022/08/16 00:02:01;;;;;;;160.35;60.38;;;;;;;24.99;70.08;100076.44;4887291;28;122280;-83
2022/08/16 00:04:28;;;;;;;172.33;61.20;;;;;;;24.99;70.46;100085.59;4886752;28;122493;-83
2022/08/16 00:06:54;;;;;;;197.20;64.13;;;;;;;24.94;71.05;100069.69;4871146;28;123727;-83
2022/08/16 00:09:20;;;;;;;183.70;61.95;;;;;;;24.99;71.06;100070.81;4887342;28;121932;-83
2022/08/16 00:11:47;;;;;;;171.48;60.58;;;;;;;24.98;70.94;100075.66;4886487;28;122089;-83
2022/08/16 00:14:19;;;;;;;175.85;60.05;;;;;;;24.98;71.02;100075.66;4886078;28;123238;-84
2022/08/16 00:16:46;;;;;;;178.70;59.40;;;;;;;24.98;71.05;100075.66;4889460;28;122712;-84
2022/08/16 00:19:19;;;;;;;169.52;58.78;;;;;;;24.96;70.53;100072.69;4868827;28;122405;-83
2022/08/16 00:22:09;;;;;;;185.75;60.50;;;;;;;24.93;70.94;100085.03;4885217;28;122088;-83
2022/08/16 00:24:35;;;;;;;160.93;58.35;;;;;;;24.92;71.02;100082.78;4869042;28;122387;-84
2022/08/16 00:27:02;;;;;;;158.75;57.05;;;;;;;24.96;71.16;100078.28;4884705;28;122768;-83
2022/08/16 00:29:29;;;;;;;157.00;56.40;;;;;;;24.94;71.08;100075.31;4885384;28;123194;-84
2022/08/16 00:31:55;;;;;;;144.13;53.78;;;;;;;24.85;70.79;100063.94;4870320;28;121839;-83
2022/08/16 00:34:22;;;;;;;160.90;54.30;;;;;;;24.93;71.17;100085.03;4869761;28;122927;-84
2022/08/16 00:36:48;;;;;;;170.40;57.72;;;;;;;24.96;71.40;100086.72;4870692;28;122016;-83
2022/08/16 00:39:16;;;;;;;156.15;55.75;;;;;;;24.97;70.93;100079.78;4891062;28;122307;-84
2022/08/16 00:41:46;;;;;;;165.93;56.80;;;;;;;24.98;70.66;100077.72;4889646;28;122404;-84
2022/08/16 00:44:13;;;;;;;145.23;53.37;;;;;;;24.96;70.99;100069.88;4890313;28;122011;-83
2022/08/16 00:47:04;;;;;;;171.63;57.45;;;;;;;24.91;70.74;100070.84;4889113;28;123907;-84
2022/08/16 00:49:30;;;;;;;161.98;55.90;;;;;;;24.88;70.59;100074.03;4890302;28;121853;-83
2022/08/16 00:51:55;;;;;;;157.30;55.85;;;;;;;24.80;71.08;100077.56;4889939;28;122054;-83
2022/08/16 00:54:25;;;;;;;150.52;55.38;;;;;;;24.75;70.87;100072.16;4889437;28;121816;-84
2022/08/16 00:56:51;;;;;;;140.60;53.03;;;;;;;24.80;71.43;100076.81;4890001;28;122364;-84
2022/08/16 00:59:32;;;;;;;162.98;55.13;;;;;;;24.74;70.85;100067.88;4895827;28;122300;-83
2022/08/16 01:01:59;;;;;;;154.57;54.22;;;;;;;24.69;70.41;100074.44;4890992;28;122395;-84
2022/08/16 01:04:26;;;;;;;153.70;54.08;;;;;;;24.75;70.20;100091.81;4872870;28;121653;-84
2022/08/16 01:06:53;;;;;;;162.00;55.77;;;;;;;24.74;70.63;100096.66;4887286;28;122312;-84
2022/08/16 01:09:19;;;;;;;142.30;53.13;;;;;;;24.66;71.00;100087.53;4871797;28;122699;-84
2022/08/16 01:11:51;;;;;;;165.73;54.97;;;;;;;24.64;71.10;100092.94;4872551;28;122683;-83
2022/08/16 01:14:25;;;;;;;155.70;53.60;;;;;;;24.66;71.03;100095.19;4871466;28;123000;-84
2022/08/16 01:16:51;;;;;;;157.80;53.33;;;;;;;24.68;71.01;100098.19;4872281;28;122607;-83
2022/08/16 01:19:37;;;;;;;148.45;52.22;;;;;;;24.68;70.79;100095.38;4875136;28;123577;-84
2022/08/16 01:22:21;;;;;;;141.93;52.00;;;;;;;24.68;70.90;100092.56;4877039;28;124770;-84
2022/08/16 01:24:54;;;;;;;139.10;50.35;;;;;;;24.67;70.66;100096.69;4873969;28;122530;-84
2022/08/16 01:27:25;;;;;;;128.10;48.13;;;;;;;24.67;70.20;100091.09;4873768;28;122377;-83
2022/08/16 01:30:01;;;;;;;164.10;52.23;;;;;;;24.63;69.85;100088.66;4874537;28;122333;-84
2022/08/16 01:32:34;;;;;;;138.90;50.58;;;;;;;24.60;70.19;100083.41;4871649;28;122443;-84
2022/08/16 01:35:06;;;;;;;137.75;51.53;;;;;;;24.49;70.27;100068.47;4885182;28;122730;-84
2022/08/16 01:37:46;;;;;;;141.52;49.63;;;;;;;24.53;70.19;100067.34;4879064;28;122190;-84
2022/08/16 01:40:15;;;;;;;161.80;53.85;;;;;;;24.48;70.42;100067.00;4885410;28;122564;-84
2022/08/16 01:42:42;;;;;;;145.80;53.53;;;;;;;24.44;70.92;100061.03;4868162;28;122662;-84
2022/08/16 01:45:08;;;;;;;158.07;54.42;;;;;;;24.41;70.65;100058.59;4891531;28;122812;-84
2022/08/16 01:47:36;;;;;;;136.95;52.17;;;;;;;24.38;70.25;100060.47;4882584;28;122017;-84
2022/08/16 01:50:04;;;;;;;145.30;54.27;;;;;;;24.37;70.72;100061.00;4882511;28;121959;-84
2022/08/16 01:52:31;;;;;;;133.45;52.13;;;;;;;24.26;70.63;100042.50;4885904;28;122435;-84
2022/08/16 01:55:04;;;;;;;125.97;49.28;;;;;;;24.38;70.23;100060.47;4884643;28;122906;-84
2022/08/16 01:57:30;;;;;;;152.48;52.08;;;;;;;24.35;70.29;100064.38;4869410;28;122581;-84
2022/08/16 01:59:56;;;;;;;137.27;51.10;;;;;;;24.23;70.30;100049.22;4869487;28;121974;-84
2022/08/16 02:02:23;;;;;;;144.70;52.42;;;;;;;24.31;70.25;100055.59;4898858;28;122369;-84
2022/08/16 02:04:50;;;;;;;140.70;51.13;;;;;;;24.32;70.85;100068.28;4869626;28;122307;-84
2022/08/16 02:07:17;;;;;;;127.83;49.70;;;;;;;24.31;70.46;100063.25;4888270;28;122281;-84
2022/08/16 02:09:46;;;;;;;130.07;51.25;;;;;;;24.29;70.61;100069.44;4884199;28;122996;-83
2022/08/16 02:12:12;;;;;;;151.35;54.08;;;;;;;24.25;70.21;100065.47;4873997;28;122279;-83
2022/08/16 02:14:38;;;;;;;149.50;52.60;;;;;;;24.29;70.76;100071.47;4885808;28;122063;-84
2022/08/16 02:17:07;;;;;;;135.65;50.42;;;;;;;24.28;70.67;100065.13;4879508;28;122453;-84
2022/08/16 02:19:36;;;;;;;135.80;50.90;;;;;;;24.25;70.71;100062.69;4892053;28;122311;-84
2022/08/16 02:22:04;;;;;;;149.40;53.03;;;;;;;24.20;70.13;100058.75;4870296;28;125079;-84
2022/08/16 02:24:30;;;;;;;150.02;54.00;;;;;;;24.15;70.51;100052.03;4870970;28;122339;-84
2022/08/16 02:26:56;;;;;;;146.77;52.60;;;;;;;24.22;70.75;100052.59;4886161;28;122995;-84
2022/08/16 02:29:23;;;;;;;149.70;52.55;;;;;;;24.24;70.44;100056.31;4885899;28;122055;-84
2022/08/16 02:31:50;;;;;;;152.10;56.40;;;;;;;24.20;70.41;100053.16;4886444;28;122397;-84
2022/08/16 02:34:18;;;;;;;152.80;55.00;;;;;;;24.22;70.95;100063.81;4886178;28;122543;-84
2022/08/16 02:36:44;;;;;;;146.23;53.55;;;;;;;24.20;70.43;100064.38;4864335;28;122331;-84
2022/08/16 02:39:12;;;;;;;143.63;52.97;;;;;;;24.17;70.53;100057.09;4866859;28;122129;-83
2022/08/16 02:41:40;;;;;;;154.37;53.90;;;;;;;24.17;71.05;100063.44;4875104;28;122706;-84
2022/08/16 02:44:10;;;;;;;141.43;51.37;;;;;;;24.18;71.04;100072.59;4869369;28;122353;-84
2022/08/16 02:46:36;;;;;;;152.38;52.15;;;;;;;24.16;71.30;100061.19;4884835;28;122433;-84
2022/08/16 02:49:04;;;;;;;160.23;53.77;;;;;;;24.21;71.41;100063.06;4884707;28;122308;-84
2022/08/16 02:51:30;;;;;;;171.93;57.87;;;;;;;24.24;71.60;100070.34;4871706;28;122172;-85
2022/08/16 02:53:58;;;;;;;170.48;57.38;;;;;;;24.21;71.41;100057.44;4863617;28;125724;-84
2022/08/16 02:56:24;;;;;;;196.15;61.00;;;;;;;24.29;71.87;100061.03;4865658;28;122560;-83
2022/08/16 02:58:52;;;;;;;127.90;47.97;;;;;;;24.29;70.96;100055.41;4867222;28;122106;-84
2022/08/16 03:01:24;;;;;;;146.47;50.53;;;;;;;24.28;70.25;100065.13;4883564;28;122449;-84
2022/08/16 03:03:54;;;;;;;144.63;53.73;;;;;;;24.24;70.33;100064.72;4883361;28;122641;-84
2022/08/16 03:06:21;;;;;;;157.23;54.60;;;;;;;24.19;70.77;100066.44;4884290;28;122475;-83
2022/08/16 03:08:50;;;;;;;151.25;54.75;;;;;;;24.21;70.19;100071.47;4882934;28;122706;-84
2022/08/16 03:11:17;;;;;;;172.30;56.53;;;;;;;24.08;71.00;100054.81;4889140;28;122331;-84
2022/08/16 03:13:46;;;;;;;169.77;58.67;;;;;;;24.15;70.38;100076.50;4869804;28;122493;-84
2022/08/16 03:16:12;;;;;;;178.52;60.80;;;;;;;24.10;70.54;100069.03;4874895;28;122480;-84
2022/08/16 03:18:40;;;;;;;162.93;58.13;;;;;;;24.11;70.33;100082.47;4868831;28;121991;-83
2022/08/16 03:21:06;;;;;;;200.83;62.43;;;;;;;24.08;71.07;100082.84;4885949;28;122856;-84
2022/08/16 03:23:34;;;;;;;204.50;63.53;;;;;;;24.05;71.26;100076.31;4869137;28;122612;-84
2022/08/16 03:25:59;;;;;;;176.90;59.92;;;;;;;23.91;71.17;100057.44;4865401;28;122523;-84
2022/08/16 03:28:25;;;;;;;170.65;58.60;;;;;;;23.95;71.03;100069.03;4867926;28;121974;-84
2022/08/16 03:30:52;;;;;;;185.77;61.20;;;;;;;24.02;71.10;100079.47;4885637;28;122187;-83
2022/08/16 03:33:18;;;;;;;213.77;66.07;;;;;;;23.98;71.15;100068.66;4871116;28;122928;-84
2022/08/16 03:35:50;;;;;;;196.40;62.53;;;;;;;23.93;70.62;100071.63;4866532;28;122502;-84
2022/08/16 03:38:42;;;;;;;188.03;62.30;;;;;;;24.00;71.05;100071.63;4885785;28;123034;-84
2022/08/16 03:41:12;;;;;;;204.13;65.70;;;;;;;24.03;71.43;100083.78;4885327;28;122535;-84
2022/08/16 03:43:38;;;;;;;184.65;61.78;;;;;;;24.01;70.83;100075.94;4869491;28;122760;-84
2022/08/16 03:46:04;;;;;;;184.82;63.10;;;;;;;24.00;71.21;100074.44;4870219;28;122115;-84
2022/08/16 03:48:36;;;;;;;222.38;69.00;;;;;;;24.03;71.44;100078.91;4869273;28;124755;-84
2022/08/16 03:51:08;;;;;;;201.50;66.53;;;;;;;24.01;70.81;100078.72;4870315;28;122446;-84
2022/08/16 03:53:41;;;;;;;258.30;76.90;;;;;;;24.06;71.04;100086.19;4868276;28;123156;-84
2022/08/16 03:56:09;;;;;;;305.83;86.47;;;;;;;24.06;71.20;100091.81;4887849;28;122597;-84
2022/08/16 03:58:36;;;;;;;294.92;85.20;;;;;;;24.05;71.54;100090.31;4886334;28;122489;-84
2022/08/16 04:01:03;;;;;;;271.63;80.87;;;;;;;24.04;71.41;100093.66;4883245;28;122037;-84
2022/08/16 04:03:30;;;;;;;321.27;86.55;;;;;;;24.05;71.23;100100.78;4884222;28;122079;-85
2022/08/16 04:05:56;;;;;;;342.35;88.55;;;;;;;24.05;71.46;100101.53;4881184;28;122556;-84
2022/08/16 04:08:24;;;;;;;358.67;92.35;;;;;;;24.07;71.50;100103.75;4885244;28;125095;-84
2022/08/16 04:10:53;;;;;;;343.63;90.13;;;;;;;24.02;71.71;100102.63;4867702;28;122438;-85
2022/08/16 04:13:20;;;;;;;361.67;91.30;;;;;;;24.07;71.66;100103.75;4870669;28;122391;-84
2022/08/16 04:15:46;;;;;;;394.83;95.70;;;;;;;24.04;71.09;100100.03;4871950;28;122255;-84
2022/08/16 04:18:17;;;;;;;479.75;102.00;;;;;;;24.06;71.57;100096.66;4871713;28;122445;-84
2022/08/16 04:20:43;;;;;;;445.45;103.88;;;;;;;24.02;71.29;100085.09;4882927;28;121982;-84
2022/08/16 04:23:09;;;;;;;490.60;107.23;;;;;;;24.07;71.48;100098.16;4883729;28;122655;-84
2022/08/16 04:25:38;;;;;;;487.37;104.57;;;;;;;23.95;71.73;100069.78;4884415;28;122641;-84
2022/08/16 04:28:07;;;;;;;474.67;106.65;;;;;;;24.10;70.72;100097.78;4885713;28;123919;-84
2022/08/16 04:30:33;;;;;;;454.20;104.23;;;;;;;24.08;70.96;100099.66;4865331;28;122238;-84
2022/08/16 04:32:59;;;;;;;542.20;112.90;;;;;;;24.10;71.35;100109.00;4869287;28;122513;-84
2022/08/16 04:35:27;;;;;;;518.45;112.78;;;;;;;24.04;70.75;100104.88;4866476;28;124638;-84
2022/08/16 04:37:53;;;;;;;554.85;114.85;;;;;;;23.81;71.44;100074.78;4885778;28;121945;-84
2022/08/16 04:40:24;;;;;;;546.85;117.28;;;;;;;23.94;71.18;100090.69;4890260;28;121885;-84
2022/08/16 04:42:51;;;;;;;534.45;114.10;;;;;;;23.96;71.13;100093.66;4859908;28;122539;-84
2022/08/16 04:45:19;;;;;;;509.63;115.78;;;;;;;23.98;71.26;100101.53;4864132;28;124522;-84
2022/08/16 04:47:45;;;;;;;485.08;110.20;;;;;;;24.00;70.91;100115.72;4890344;28;122000;-84
2022/08/16 04:50:17;;;;;;;506.38;111.28;;;;;;;23.95;70.83;100119.44;4884228;28;122091;-84
2022/08/16 04:53:18;;;;;;;489.92;110.57;;;;;;;23.87;71.15;100106.16;4886651;28;122211;-84
2022/08/16 04:55:48;;;;;;;481.85;109.75;;;;;;;23.94;71.20;100120.75;4884533;28;122468;-84
2022/08/16 04:58:14;;;;;;;502.80;106.20;;;;;;;23.92;71.62;100103.75;4864037;28;121945;-84
2022/08/16 05:00:40;;;;;;;493.87;111.17;;;;;;;23.79;71.51;100079.44;4884123;28;121879;-85
2022/08/16 05:03:12;;;;;;;473.83;108.00;;;;;;;23.96;72.00;100102.06;4872996;28;122331;-84
2022/08/16 05:05:47;;;;;;;517.07;114.03;;;;;;;24.08;71.51;100113.66;4889576;28;122457;-83
2022/08/16 05:08:16;;;;;;;514.33;109.30;;;;;;;24.09;71.57;100112.34;4870778;28;123341;-85
2022/08/16 05:10:45;;;;;;;481.50;109.18;;;;;;;24.07;71.39;100107.31;4869190;28;122441;-83
2022/08/16 05:13:11;;;;;;;476.43;107.57;;;;;;;24.10;71.56;100109.00;4888018;28;122298;-83
2022/08/16 05:15:38;;;;;;;461.08;108.53;;;;;;;24.08;71.23;100108.06;4884134;28;122027;-85
2022/08/16 05:18:03;;;;;;;462.10;110.78;;;;;;;24.07;71.63;100106.56;4890124;28;121991;-84
2022/08/16 05:20:34;;;;;;;419.48;106.50;;;;;;;24.14;71.14;100117.78;4882422;28;122023;-84
2022/08/16 05:23:01;;;;;;;415.08;103.43;;;;;;;24.16;71.57;100111.63;4889194;28;122800;-84
2022/08/16 05:25:27;;;;;;;374.60;100.82;;;;;;;24.09;71.04;100103.94;4865925;28;122725;-84
2022/08/16 05:27:54;;;;;;;402.13;101.67;;;;;;;24.15;70.58;100124.88;4864785;28;121963;-84
2022/08/16 05:30:22;;;;;;;372.90;102.85;;;;;;;24.09;70.50;100129.16;4887780;28;122846;-84
2022/08/16 05:32:48;;;;;;;355.93;103.90;;;;;;;24.04;70.90;100122.44;4884852;28;122176;-84
2022/08/16 05:35:15;;;;;;;386.58;103.75;;;;;;;24.03;70.73;100125.78;4887803;28;122829;-84
2022/08/16 05:38:17;;;;;;;352.23;104.80;;;;;;;24.03;70.82;100137.00;4872329;28;122425;-84
2022/08/16 05:40:44;;;;;;;354.65;104.30;;;;;;;24.01;70.72;100139.63;4861103;28;123762;-84
2022/08/16 05:43:10;;;;;;;327.08;103.95;;;;;;;23.97;70.29;100142.03;4884226;28;123820;-83
2022/08/16 05:45:44;;;;;;;371.73;110.07;;;;;;;23.88;70.83;100149.66;4887198;28;122141;-83
2022/08/16 05:48:10;;;;;;;392.30;112.45;;;;;;;23.80;70.82;100143.28;4876746;28;122449;-84
2022/08/16 05:50:48;;;;;;;424.83;116.72;;;;;;;23.83;71.89;100152.63;4883295;28;122291;-83
2022/08/16 05:53:16;;;;;;;443.77;115.70;;;;;;;23.92;71.63;100159.78;4871836;28;122213;-84
2022/08/16 05:55:57;;;;;;;438.08;110.88;;;;;;;23.92;71.76;100146.50;4871071;28;123596;-84
2022/08/16 05:58:23;;;;;;;403.03;109.73;;;;;;;24.05;72.04;100159.59;4871655;28;122969;-84
2022/08/16 06:00:48;;;;;;;395.17;107.97;;;;;;;24.06;71.88;100155.50;4863066;28;122614;-84
2022/08/16 06:03:15;;;;;;;402.00;110.78;;;;;;;24.17;72.30;100158.69;4869648;28;121992;-84
2022/08/16 06:05:53;;;;;;;361.00;105.67;;;;;;;24.17;72.02;100155.16;4884530;28;122271;-84
2022/08/16 06:08:19;;;;;;;351.50;105.73;;;;;;;24.26;71.81;100159.44;4874903;28;124119;-84
2022/08/16 06:10:46;;;;;;;355.02;102.70;;;;;;;24.27;72.30;100158.88;4887166;28;122382;-84
2022/08/16 06:13:13;;;;;;;369.13;106.43;;;;;;;24.26;72.29;100160.19;4875553;28;124039;-85
2022/08/16 06:15:39;;;;;;;379.80;107.73;;;;;;;24.36;71.97;100174.41;4870738;28;123088;-84
2022/08/16 06:18:04;;;;;;;363.20;105.60;;;;;;;24.41;72.25;100170.72;4883089;28;122146;-85
2022/08/16 06:20:31;;;;;;;361.33;104.90;;;;;;;24.42;72.11;100158.19;4878482;28;122030;-84
2022/08/16 06:22:58;;;;;;;364.58;104.68;;;;;;;24.46;71.90;100164.16;4888139;28;122880;-84
2022/08/16 06:25:28;;;;;;;357.83;106.53;;;;;;;24.49;71.76;100166.59;4889300;28;122307;-83
2022/08/16 06:27:55;;;;;;;345.60;101.88;;;;;;;24.53;71.97;100162.66;4886300;28;122522;-84
2022/08/16 06:30:21;;;;;;;347.85;102.63;;;;;;;24.60;72.27;100170.31;4877660;28;123678;-84
2022/08/16 06:32:48;;;;;;;436.75;109.05;;;;;;;24.71;72.41;100175.56;4888429;28;122385;-84
2022/08/16 06:35:15;;;;;;;424.10;107.95;;;;;;;24.68;72.48;100160.63;4886719;28;123454;-84
2022/08/16 06:37:43;;;;;;;424.35;108.93;;;;;;;24.82;71.85;100175.19;4865313;28;122071;-85
2022/08/16 06:40:10;;;;;;;324.75;97.97;;;;;;;24.84;72.03;100171.81;4888488;28;123925;-84
2022/08/16 06:42:40;;;;;;;398.80;107.30;;;;;;;24.94;71.91;100178.34;4868562;28;122109;-85
2022/08/16 06:45:29;;;;;;;374.75;106.28;;;;;;;25.05;72.22;100187.13;4884789;28;122023;-85
2022/08/16 06:48:04;;;;;;;352.03;101.43;;;;;;;25.11;71.86;100178.56;4885560;28;122685;-84
2022/08/16 06:50:31;;;;;;;419.53;110.83;;;;;;;25.17;72.16;100186.75;4868856;28;123877;-84
2022/08/16 06:53:01;;;;;;;373.30;102.70;;;;;;;25.22;71.92;100178.13;4878049;28;121867;-84
2022/08/16 06:55:28;;;;;;;378.00;102.50;;;;;;;25.25;71.65;100193.09;4888472;28;122172;-84
2022/08/16 06:57:55;;;;;;;309.90;94.00;;;;;;;25.25;71.76;100187.47;4890247;28;122721;-84
2022/08/16 07:00:23;;;;;;;344.50;99.00;;;;;;;25.33;71.69;100197.41;4885212;28;122429;-85
2022/08/16 07:02:56;;;;;;;259.40;88.70;;;;;;;25.39;71.62;100214.03;4885471;28;123987;-84
2022/08/16 07:05:22;;;;;;;357.00;101.30;;;;;;;25.45;70.93;100211.00;4894298;28;122069;-84
2022/08/16 07:08:07;;;;;;;257.25;81.53;;;;;;;25.39;71.27;100197.19;4894928;28;122828;-84
2022/08/16 07:10:33;;;;;;;209.30;77.82;;;;;;;25.56;70.90;100205.00;4888361;28;121833;-83
2022/08/16 07:12:59;;;;;;;246.25;80.97;;;;;;;25.57;71.00;100193.19;4887537;28;122665;-84
2022/08/16 07:15:25;;;;;;;239.73;78.90;;;;;;;25.69;71.41;100197.09;4892037;28;122065;-85
2022/08/16 07:17:52;;;;;;;230.73;75.53;;;;;;;25.79;71.23;100199.28;4889841;28;122647;-85
2022/08/16 07:20:21;;;;;;;235.02;76.82;;;;;;;25.97;71.01;100198.09;4866406;28;123123;-84
2022/08/16 07:22:54;;;;;;;175.45;65.22;;;;;;;26.03;70.70;100200.69;4870824;28;121669;-84
2022/08/16 07:25:25;;;;;;;138.20;57.47;;;;;;;26.01;70.35;100175.94;4890611;28;122125;-84
2022/08/16 07:27:52;;;;;;;105.55;46.20;;;;;;;26.29;69.47;100214.97;4865839;28;122547;-84
2022/08/16 07:30:22;;;;;;;119.80;49.13;;;;;;;26.31;69.75;100197.53;4884643;28;122332;-84
2022/08/16 07:32:49;;;;;;;132.50;51.42;;;;;;;26.39;70.07;100197.47;4886858;28;122970;-84
2022/08/16 07:35:17;;;;;;;91.97;41.80;;;;;;;26.51;69.11;100188.03;4891779;28;122109;-84
2022/08/16 07:37:43;;;;;;;78.57;37.63;;;;;;;26.63;68.65;100196.75;4889884;28;122659;-84
2022/08/16 07:40:16;;;;;;;56.72;30.80;;;;;;;26.68;68.30;100192.94;4883160;28;122097;-85
2022/08/16 07:42:43;;;;;;;57.67;30.23;;;;;;;26.63;67.30;100199.56;4867472;28;123643;-83
2022/08/16 07:45:10;;;;;;;55.00;28.30;;;;;;;26.65;67.07;100207.41;4871396;28;122871;-84
2022/08/16 07:47:38;;;;;;;48.65;26.58;;;;;;;26.60;67.19;100209.88;4881845;28;122393;-85
2022/08/16 07:50:04;;;;;;;50.55;27.05;;;;;;;26.62;67.83;100203.69;4883769;28;122151;-84
2022/08/16 07:52:31;;;;;;;54.50;29.15;;;;;;;26.64;67.89;100203.84;4866426;28;122046;-84
2022/08/16 07:54:57;;;;;;;42.03;24.67;;;;;;;26.65;67.11;100213.78;4870413;28;121977;-84
2022/08/16 07:57:23;;;;;;;45.20;25.58;;;;;;;26.53;67.17;100207.88;4869839;28;122492;-85
2022/08/16 08:00:09;;;;;;;35.72;23.38;;;;;;;26.54;67.23;100222.69;4886383;28;122307;-84
2022/08/16 08:02:41;;;;;;;33.83;22.08;;;;;;;26.55;66.49;100227.00;4877191;28;124658;-83
2022/08/16 08:05:10;;;;;;;37.50;22.63;;;;;;;26.51;66.93;100213.34;4857439;28;123138;-84
2022/08/16 08:07:37;;;;;;;47.03;26.50;;;;;;;26.59;67.67;100225.28;4879081;28;123657;-84
2022/08/16 08:10:04;;;;;;;43.20;25.00;;;;;;;26.67;67.17;100225.22;4863345;28;124440;-84
2022/08/16 08:12:32;;;;;;;37.25;23.23;;;;;;;26.61;67.00;100213.44;4874881;28;123145;-84
2022/08/16 08:14:58;;;;;;;37.63;22.88;;;;;;;26.64;66.76;100226.34;4889972;28;122477;-84
2022/08/16 08:17:24;;;;;;;36.35;22.92;;;;;;;26.63;66.21;100213.63;4889716;28;122133;-84
2022/08/16 08:19:50;;;;;;;25.73;20.38;;;;;;;26.68;65.73;100223.13;4883180;28;122943;-85
2022/08/16 08:22:15;;;;;;;31.77;21.50;;;;;;;26.66;66.19;100198.41;4864663;28;122779;-84
2022/08/16 08:24:52;;;;;;;29.23;20.92;;;;;;;26.78;66.26;100207.88;4871468;28;122159;-84
2022/08/16 08:27:18;;;;;;;26.75;19.45;;;;;;;26.93;66.32;100218.97;4877224;28;122096;-84
2022/08/16 08:29:44;;;;;;;31.10;20.47;;;;;;;27.01;66.49;100215.41;4873294;28;123383;-85
2022/08/16 08:32:12;;;;;;;25.02;18.88;;;;;;;27.13;65.97;100233.28;4890290;28;122369;-85
2022/08/16 08:34:38;;;;;;;26.45;19.27;;;;;;;27.20;65.71;100216.31;4888752;28;122671;-85
2022/08/16 08:37:04;;;;;;;19.67;16.33;;;;;;;27.34;65.49;100236.44;4871664;28;124831;-84
2022/08/16 08:39:37;;;;;;;23.85;17.65;;;;;;;27.35;64.74;100235.13;4891345;28;122714;-85
2022/08/16 08:42:05;;;;;;;26.13;18.30;;;;;;;27.41;65.25;100241.25;4888837;28;122352;-84
2022/08/16 08:44:33;;;;;;;24.33;18.50;;;;;;;27.55;65.95;100246.56;4887845;28;123235;-85
2022/08/16 08:47:05;;;;;;;20.90;16.70;;;;;;;27.59;64.82;100255.34;4888964;28;122646;-85
2022/08/16 08:49:34;;;;;;;25.33;17.98;;;;;;;27.57;64.64;100246.72;4887100;28;122121;-85
2022/08/16 08:52:01;;;;;;;17.42;15.32;;;;;;;27.57;63.27;100255.16;4890982;28;122689;-85
2022/08/16 08:54:57;;;;;;;20.23;16.50;;;;;;;27.47;63.77;100255.84;4857380;28;122270;-84
2022/08/16 08:57:24;;;;;;;23.73;18.08;;;;;;;27.40;63.94;100262.28;4856321;28;122735;-84
2022/08/16 08:59:59;;;;;;;20.02;16.40;;;;;;;27.19;63.14;100237.34;4889043;28;122102;-85
2022/08/16 09:02:25;;;;;;;22.85;17.77;;;;;;;27.19;64.10;100259.13;4877256;28;124140;-84
2022/08/16 09:04:55;;;;;;;19.55;16.88;;;;;;;27.17;64.99;100262.50;4879533;28;124527;-84
2022/08/16 09:07:21;;;;;;;24.07;17.53;;;;;;;27.19;65.11;100271.13;4894460;28;122426;-86
2022/08/16 09:09:48;;;;;;;23.17;18.30;;;;;;;27.27;65.42;100284.41;4892574;28;122509;-86
2022/08/16 09:12:17;;;;;;;25.77;18.60;;;;;;;27.27;65.83;100271.06;4875385;28;122216;-86
2022/08/16 09:14:59;;;;;;;23.85;19.30;;;;;;;27.37;65.64;100273.97;4875490;28;122122;-86
2022/08/16 09:17:27;;;;;;;22.38;17.55;;;;;;;27.41;65.19;100274.28;4891199;28;123638;-86
2022/08/16 09:19:54;;;;;;;24.98;17.92;;;;;;;27.32;65.21;100258.06;4876143;28;122509;-85
2022/08/16 09:22:22;;;;;;;25.10;18.05;;;;;;;27.39;65.73;100266.44;4875644;28;122812;-86
2022/08/16 09:24:49;;;;;;;23.57;16.90;;;;;;;27.55;64.94;100283.19;4873005;28;123473;-86
2022/08/16 09:27:15;;;;;;;18.60;15.60;;;;;;;27.63;63.96;100297.94;4891195;28;122500;-86
2022/08/16 09:29:42;;;;;;;18.03;14.50;;;;;;;27.63;63.79;100284.59;4889547;28;125048;-86
2022/08/16 09:32:09;;;;;;;18.65;13.90;;;;;;;27.75;63.77;100296.88;4876090;28;122336;-86
2022/08/16 09:34:35;;;;;;;16.45;13.63;;;;;;;27.74;64.75;100260.84;4891192;28;122467;-86
2022/08/16 09:37:01;;;;;;;13.32;12.02;;;;;;;28.18;61.63;100288.28;4887218;28;122738;-86
2022/08/16 09:39:27;;;;;;;13.80;10.50;;;;;;;28.27;61.22;100293.28;4873428;28;122185;-85
2022/08/16 09:41:55;;;;;;;11.90;10.20;;;;;;;28.42;60.90;100293.06;4893082;28;122070;-86
2022/08/16 09:44:25;;;;;;;11.73;10.02;;;;;;;28.50;60.50;100302.16;4876630;28;124696;-85
2022/08/16 09:46:52;;;;;;;12.40;10.07;;;;;;;28.49;59.32;100294.28;4891078;28;122804;-86
2022/08/16 09:49:19;;;;;;;17.02;10.38;;;;;;;28.47;59.66;100303.34;4887458;28;122157;-86
2022/08/16 09:51:46;;;;;;;13.17;10.27;;;;;;;28.49;59.84;100302.75;4872760;28;122839;-86
2022/08/16 09:54:13;;;;;;;14.75;10.60;;;;;;;28.50;59.92;100293.69;4887740;28;122122;-86
2022/08/16 09:56:40;;;;;;;15.13;11.43;;;;;;;28.59;59.97;100297.88;4886127;28;123037;-85
2022/08/16 09:59:08;;;;;;;13.80;11.87;;;;;;;28.58;58.50;100294.31;4881370;28;122755;-85
2022/08/16 10:01:38;;;;;;;12.43;11.20;;;;;;;28.59;58.64;100287.34;4886462;28;122960;-85
2022/08/16 10:04:15;;;;;;;13.30;11.43;;;;;;;28.61;58.33;100290.31;4878011;28;123026;-85
2022/08/16 10:06:41;;;;;;;12.60;11.30;;;;;;;28.55;58.89;100283.47;4882993;28;122606;-86
2022/08/16 10:09:08;;;;;;;13.20;11.05;;;;;;;28.64;58.04;100306.09;4885059;28;123872;-85
2022/08/16 10:14:19;;;;;;;13.40;11.32;;;;;;;28.72;58.91;100303.91;4884331;28;122535;-85
2022/08/16 10:16:45;;;;;;;11.83;10.10;;;;;;;28.83;57.63;100324.44;4880543;28;122711;-86
2022/08/16 10:19:12;;;;;;;13.27;11.30;;;;;;;28.94;58.06;100318.28;4883257;28;123309;-85
2022/08/16 10:21:38;;;;;;;14.30;11.30;;;;;;;28.91;57.14;100308.91;4882738;28;122261;-86
2022/08/16 10:24:06;;;;;;;14.30;11.80;;;;;;;28.95;56.80;100320.50;4876451;28;124594;-85
2022/08/16 10:26:32;;;;;;;13.35;11.52;;;;;;;28.82;56.15;100318.03;4869124;28;122113;-86
2022/08/16 10:28:59;;;;;;;15.00;11.73;;;;;;;28.73;56.86;100322.31;4884093;28;122308;-85
2022/08/16 10:31:25;;;;;;;16.67;12.27;;;;;;;28.65;56.95;100318.13;4886110;28;124051;-85
2022/08/16 10:33:52;;;;;;;13.83;12.37;;;;;;;28.73;56.93;100325.13;4868361;28;122273;-85
2022/08/16 10:36:19;;;;;;;12.25;11.02;;;;;;;28.78;56.14;100328.28;4885784;28;123138;-86
2022/08/16 10:38:45;;;;;;;16.17;12.40;;;;;;;28.83;57.16;100318.78;4879414;28;122651;-86
2022/08/16 10:41:11;;;;;;;15.52;11.63;;;;;;;28.88;57.24;100331.94;4877042;28;123864;-86
2022/08/16 10:43:39;;;;;;;15.15;12.48;;;;;;;28.89;56.42;100328.50;4903544;28;122088;-85
2022/08/16 10:46:07;;;;;;;15.57;12.07;;;;;;;28.90;55.43;100335.66;4872820;28;123056;-86
2022/08/16 10:48:34;;;;;;;14.57;12.15;;;;;;;28.91;55.75;100342.03;4873070;28;122354;-86
2022/08/16 10:51:20;;;;;;;14.82;12.63;;;;;;;28.87;56.74;100347.38;4888661;28;122956;-85
2022/08/16 10:53:46;;;;;;;15.68;13.15;;;;;;;28.83;57.39;100341.38;4887827;28;122519;-85
2022/08/16 10:56:12;;;;;;;15.15;13.52;;;;;;;28.82;56.75;100340.63;4886233;28;122665;-86
2022/08/16 10:58:39;;;;;;;15.15;13.60;;;;;;;28.94;57.14;100350.06;4889272;28;122539;-85
2022/08/16 11:01:07;;;;;;;14.57;13.00;;;;;;;28.99;56.11;100351.88;4886256;28;122530;-86
2022/08/16 11:03:34;;;;;;;15.18;13.55;;;;;;;28.91;57.34;100334.31;4888644;28;122457;-85
2022/08/16 11:06:03;;;;;;;13.83;12.37;;;;;;;29.08;55.72;100349.66;4885166;28;122390;-85